sensor_id;sensor_type;location;lat;lon;timestamp;P1;durP1;ratioP1;P2;durP2;ratioP2
67776;SDS011;54576;52.020;5.536;2023-07-09T00:00:13;14.90;;;5.10;;
67776;SDS011;54576;52.020;5.536;2023-07-09T00:02:41;7.40;;;4.63;;
67776;SDS011;54576;52.020;5.536;2023-07-09T00:05:11;11.40;;;6.00;;
67776;SDS011;54576;52.020;5.536;2023-07-09T00:07:39;9.02;;;5.13;;
67776;SDS011;54576;52.020;5.536;2023-07-09T00:10:15;13.88;;;6.05;;
67776;SDS011;54576;52.020;5.536;2023-07-09T00:12:45;11.43;;;5.55;;
67776;SDS011;54576;52.020;5.536;2023-07-09T00:15:12;11.50;;;5.32;;
67776;SDS011;54576;52.020;5.536;2023-07-09T00:17:41;11.93;;;5.20;;
67776;SDS011;54576;52.020;5.536;2023-07-09T00:20:10;11.60;;;4.95;;
67776;SDS011;54576;52.020;5.536;2023-07-09T00:22:43;8.95;;;5.60;;
67776;SDS011;54576;52.020;5.536;2023-07-09T00:25:17;12.32;;;5.20;;
67776;SDS011;54576;52.020;5.536;2023-07-09T00:27:44;9.20;;;5.47;;
67776;SDS011;54576;52.020;5.536;2023-07-09T00:32:40;15.35;;;5.45;;
67776;SDS011;54576;52.020;5.536;2023-07-09T00:35:08;10.90;;;5.68;;
67776;SDS011;54576;52.020;5.536;2023-07-09T00:37:37;12.35;;;5.63;;
67776;SDS011;54576;52.020;5.536;2023-07-09T00:40:02;16.52;;;6.03;;
67776;SDS011;54576;52.020;5.536;2023-07-09T00:42:29;9.48;;;5.13;;
67776;SDS011;54576;52.020;5.536;2023-07-09T00:44:55;11.93;;;6.20;;
67776;SDS011;54576;52.020;5.536;2023-07-09T00:49:56;16.52;;;6.93;;
67776;SDS011;54576;52.020;5.536;2023-07-09T00:52:38;15.35;;;7.20;;
67776;SDS011;54576;52.020;5.536;2023-07-09T00:55:14;11.65;;;7.15;;
67776;SDS011;54576;52.020;5.536;2023-07-09T00:57:42;23.27;;;8.05;;
67776;SDS011;54576;52.020;5.536;2023-07-09T01:02:47;14.95;;;8.23;;
67776;SDS011;54576;52.020;5.536;2023-07-09T01:05:13;15.68;;;7.75;;
67776;SDS011;54576;52.020;5.536;2023-07-09T01:07:42;18.77;;;6.95;;
67776;SDS011;54576;52.020;5.536;2023-07-09T01:10:11;10.27;;;6.25;;
67776;SDS011;54576;52.020;5.536;2023-07-09T01:12:40;9.65;;;5.93;;
67776;SDS011;54576;52.020;5.536;2023-07-09T01:15:07;12.10;;;5.35;;
67776;SDS011;54576;52.020;5.536;2023-07-09T01:17:33;10.98;;;5.10;;
67776;SDS011;54576;52.020;5.536;2023-07-09T01:19:59;6.32;;;5.00;;
67776;SDS011;54576;52.020;5.536;2023-07-09T01:22:24;15.70;;;5.30;;
67776;SDS011;54576;52.020;5.536;2023-07-09T01:24:54;10.82;;;5.85;;
67776;SDS011;54576;52.020;5.536;2023-07-09T01:27:33;10.50;;;5.88;;
67776;SDS011;54576;52.020;5.536;2023-07-09T01:30:09;10.75;;;6.40;;
67776;SDS011;54576;52.020;5.536;2023-07-09T01:32:41;8.70;;;5.13;;
67776;SDS011;54576;52.020;5.536;2023-07-09T01:35:11;12.98;;;5.97;;
67776;SDS011;54576;52.020;5.536;2023-07-09T01:37:40;10.02;;;5.45;;
67776;SDS011;54576;52.020;5.536;2023-07-09T01:40:07;9.30;;;5.75;;
67776;SDS011;54576;52.020;5.536;2023-07-09T01:42:34;8.35;;;5.60;;
67776;SDS011;54576;52.020;5.536;2023-07-09T01:45:01;12.98;;;6.03;;
67776;SDS011;54576;52.020;5.536;2023-07-09T01:47:29;13.05;;;6.88;;
67776;SDS011;54576;52.020;5.536;2023-07-09T01:49:55;13.25;;;5.85;;
67776;SDS011;54576;52.020;5.536;2023-07-09T01:52:22;15.07;;;6.60;;
67776;SDS011;54576;52.020;5.536;2023-07-09T01:54:52;16.35;;;6.15;;
67776;SDS011;54576;52.020;5.536;2023-07-09T01:57:22;16.63;;;6.20;;
67776;SDS011;54576;52.020;5.536;2023-07-09T02:00:03;8.93;;;5.95;;
67776;SDS011;54576;52.020;5.536;2023-07-09T02:02:30;11.20;;;5.90;;
67776;SDS011;54576;52.020;5.536;2023-07-09T02:04:59;10.40;;;6.20;;
67776;SDS011;54576;52.020;5.536;2023-07-09T02:07:28;11.32;;;5.65;;
67776;SDS011;54576;52.020;5.536;2023-07-09T02:09:57;13.43;;;5.40;;
67776;SDS011;54576;52.020;5.536;2023-07-09T02:12:24;10.70;;;5.97;;
67776;SDS011;54576;52.020;5.536;2023-07-09T02:14:49;12.07;;;5.40;;
67776;SDS011;54576;52.020;5.536;2023-07-09T02:17:15;14.65;;;5.63;;
67776;SDS011;54576;52.020;5.536;2023-07-09T02:19:41;8.20;;;5.28;;
67776;SDS011;54576;52.020;5.536;2023-07-09T02:22:07;8.13;;;5.68;;
67776;SDS011;54576;52.020;5.536;2023-07-09T02:24:34;16.83;;;6.03;;
67776;SDS011;54576;52.020;5.536;2023-07-09T02:27:01;11.65;;;5.85;;
67776;SDS011;54576;52.020;5.536;2023-07-09T02:29:28;13.48;;;5.63;;
67776;SDS011;54576;52.020;5.536;2023-07-09T02:31:56;9.07;;;5.82;;
67776;SDS011;54576;52.020;5.536;2023-07-09T02:34:22;16.00;;;6.20;;
67776;SDS011;54576;52.020;5.536;2023-07-09T02:36:51;12.10;;;5.47;;
67776;SDS011;54576;52.020;5.536;2023-07-09T02:39:21;11.13;;;5.82;;
67776;SDS011;54576;52.020;5.536;2023-07-09T02:41:47;15.35;;;5.78;;
67776;SDS011;54576;52.020;5.536;2023-07-09T02:44:13;14.23;;;5.65;;
67776;SDS011;54576;52.020;5.536;2023-07-09T02:46:39;9.10;;;5.57;;
67776;SDS011;54576;52.020;5.536;2023-07-09T02:49:05;11.85;;;5.47;;
67776;SDS011;54576;52.020;5.536;2023-07-09T02:51:32;11.75;;;5.45;;
67776;SDS011;54576;52.020;5.536;2023-07-09T02:53:58;8.05;;;5.70;;
67776;SDS011;54576;52.020;5.536;2023-07-09T02:56:31;9.52;;;5.70;;
67776;SDS011;54576;52.020;5.536;2023-07-09T02:58:57;19.65;;;6.65;;
67776;SDS011;54576;52.020;5.536;2023-07-09T03:01:23;11.65;;;7.05;;
67776;SDS011;54576;52.020;5.536;2023-07-09T03:03:52;10.10;;;5.72;;
67776;SDS011;54576;52.020;5.536;2023-07-09T03:06:22;10.32;;;5.78;;
67776;SDS011;54576;52.020;5.536;2023-07-09T03:08:49;9.88;;;5.47;;
67776;SDS011;54576;52.020;5.536;2023-07-09T03:11:15;9.95;;;5.68;;
67776;SDS011;54576;52.020;5.536;2023-07-09T03:13:41;14.07;;;5.63;;
67776;SDS011;54576;52.020;5.536;2023-07-09T03:16:07;7.20;;;5.45;;
67776;SDS011;54576;52.020;5.536;2023-07-09T03:18:33;7.75;;;5.30;;
67776;SDS011;54576;52.020;5.536;2023-07-09T03:20:58;9.20;;;5.93;;
67776;SDS011;54576;52.020;5.536;2023-07-09T03:23:24;10.82;;;5.68;;
67776;SDS011;54576;52.020;5.536;2023-07-09T03:25:50;9.88;;;5.75;;
67776;SDS011;54576;52.020;5.536;2023-07-09T03:28:16;13.15;;;5.55;;
67776;SDS011;54576;52.020;5.536;2023-07-09T03:30:42;11.07;;;5.32;;
67776;SDS011;54576;52.020;5.536;2023-07-09T03:33:09;11.45;;;6.40;;
67776;SDS011;54576;52.020;5.536;2023-07-09T03:35:35;11.63;;;5.60;;
67776;SDS011;54576;52.020;5.536;2023-07-09T03:38:02;18.45;;;5.97;;
67776;SDS011;54576;52.020;5.536;2023-07-09T03:40:27;12.77;;;6.40;;
67776;SDS011;54576;52.020;5.536;2023-07-09T03:42:53;13.05;;;5.70;;
67776;SDS011;54576;52.020;5.536;2023-07-09T03:45:19;13.13;;;5.53;;
67776;SDS011;54576;52.020;5.536;2023-07-09T03:47:44;9.48;;;5.65;;
67776;SDS011;54576;52.020;5.536;2023-07-09T03:50:10;6.70;;;5.45;;
67776;SDS011;54576;52.020;5.536;2023-07-09T03:52:36;12.32;;;7.13;;
67776;SDS011;54576;52.020;5.536;2023-07-09T03:55:02;12.93;;;6.65;;
67776;SDS011;54576;52.020;5.536;2023-07-09T03:57:29;12.27;;;6.25;;
67776;SDS011;54576;52.020;5.536;2023-07-09T03:59:55;9.95;;;6.40;;
67776;SDS011;54576;52.020;5.536;2023-07-09T04:02:21;10.13;;;6.07;;
67776;SDS011;54576;52.020;5.536;2023-07-09T04:04:47;9.18;;;5.25;;
67776;SDS011;54576;52.020;5.536;2023-07-09T04:07:13;22.33;;;6.65;;
67776;SDS011;54576;52.020;5.536;2023-07-09T04:09:38;10.57;;;5.93;;
67776;SDS011;54576;52.020;5.536;2023-07-09T04:12:04;12.27;;;6.20;;
67776;SDS011;54576;52.020;5.536;2023-07-09T04:14:30;12.20;;;6.15;;
67776;SDS011;54576;52.020;5.536;2023-07-09T04:16:56;11.63;;;6.70;;
67776;SDS011;54576;52.020;5.536;2023-07-09T04:19:22;11.70;;;6.82;;
67776;SDS011;54576;52.020;5.536;2023-07-09T04:21:48;11.90;;;6.38;;
67776;SDS011;54576;52.020;5.536;2023-07-09T04:24:15;11.90;;;6.50;;
67776;SDS011;54576;52.020;5.536;2023-07-09T04:26:42;10.73;;;6.50;;
67776;SDS011;54576;52.020;5.536;2023-07-09T04:29:07;13.30;;;6.53;;
67776;SDS011;54576;52.020;5.536;2023-07-09T04:31:33;10.20;;;6.63;;
67776;SDS011;54576;52.020;5.536;2023-07-09T04:33:59;15.35;;;6.97;;
67776;SDS011;54576;52.020;5.536;2023-07-09T04:36:24;10.45;;;6.47;;
67776;SDS011;54576;52.020;5.536;2023-07-09T04:38:51;13.38;;;6.65;;
67776;SDS011;54576;52.020;5.536;2023-07-09T04:41:16;15.35;;;6.40;;
67776;SDS011;54576;52.020;5.536;2023-07-09T04:43:42;14.13;;;7.03;;
67776;SDS011;54576;52.020;5.536;2023-07-09T04:46:08;12.82;;;7.72;;
67776;SDS011;54576;52.020;5.536;2023-07-09T04:48:34;21.17;;;8.00;;
67776;SDS011;54576;52.020;5.536;2023-07-09T04:50:59;23.90;;;9.13;;
67776;SDS011;54576;52.020;5.536;2023-07-09T04:53:25;24.17;;;9.25;;
67776;SDS011;54576;52.020;5.536;2023-07-09T04:55:51;23.05;;;8.75;;
67776;SDS011;54576;52.020;5.536;2023-07-09T04:58:17;15.02;;;8.52;;
67776;SDS011;54576;52.020;5.536;2023-07-09T05:00:43;21.42;;;7.63;;
67776;SDS011;54576;52.020;5.536;2023-07-09T05:05:44;13.95;;;8.25;;
67776;SDS011;54576;52.020;5.536;2023-07-09T05:08:11;13.80;;;7.30;;
67776;SDS011;54576;52.020;5.536;2023-07-09T05:10:43;21.20;;;8.13;;
67776;SDS011;54576;52.020;5.536;2023-07-09T05:13:13;11.05;;;7.90;;
67776;SDS011;54576;52.020;5.536;2023-07-09T05:15:39;17.40;;;7.53;;
67776;SDS011;54576;52.020;5.536;2023-07-09T05:18:06;14.23;;;6.80;;
67776;SDS011;54576;52.020;5.536;2023-07-09T05:20:35;10.15;;;7.40;;
67776;SDS011;54576;52.020;5.536;2023-07-09T05:23:01;12.13;;;7.00;;
67776;SDS011;54576;52.020;5.536;2023-07-09T05:25:27;10.63;;;6.63;;
67776;SDS011;54576;52.020;5.536;2023-07-09T05:27:52;8.98;;;6.70;;
67776;SDS011;54576;52.020;5.536;2023-07-09T05:30:18;11.85;;;7.32;;
67776;SDS011;54576;52.020;5.536;2023-07-09T05:32:44;16.42;;;9.00;;
67776;SDS011;54576;52.020;5.536;2023-07-09T05:35:10;20.38;;;9.75;;
67776;SDS011;54576;52.020;5.536;2023-07-09T05:37:36;14.40;;;10.30;;
67776;SDS011;54576;52.020;5.536;2023-07-09T05:40:02;19.27;;;10.75;;
67776;SDS011;54576;52.020;5.536;2023-07-09T05:42:30;27.63;;;12.18;;
67776;SDS011;54576;52.020;5.536;2023-07-09T05:44:56;34.53;;;12.93;;
67776;SDS011;54576;52.020;5.536;2023-07-09T05:47:22;20.02;;;12.73;;
67776;SDS011;54576;52.020;5.536;2023-07-09T05:49:48;23.58;;;12.60;;
67776;SDS011;54576;52.020;5.536;2023-07-09T05:52:15;32.90;;;14.07;;
67776;SDS011;54576;52.020;5.536;2023-07-09T05:54:42;36.83;;;14.75;;
67776;SDS011;54576;52.020;5.536;2023-07-09T05:57:08;32.00;;;14.05;;
67776;SDS011;54576;52.020;5.536;2023-07-09T05:59:34;20.90;;;14.38;;
67776;SDS011;54576;52.020;5.536;2023-07-09T06:02:00;25.73;;;13.77;;
67776;SDS011;54576;52.020;5.536;2023-07-09T06:04:26;37.50;;;14.13;;
67776;SDS011;54576;52.020;5.536;2023-07-09T06:06:51;30.77;;;16.58;;
67776;SDS011;54576;52.020;5.536;2023-07-09T06:09:17;30.35;;;15.05;;
67776;SDS011;54576;52.020;5.536;2023-07-09T06:11:45;31.10;;;15.55;;
67776;SDS011;54576;52.020;5.536;2023-07-09T06:14:11;28.38;;;15.10;;
67776;SDS011;54576;52.020;5.536;2023-07-09T06:16:37;31.98;;;15.30;;
67776;SDS011;54576;52.020;5.536;2023-07-09T06:19:02;29.20;;;15.35;;
67776;SDS011;54576;52.020;5.536;2023-07-09T06:21:29;33.00;;;15.73;;
67776;SDS011;54576;52.020;5.536;2023-07-09T06:23:54;35.42;;;16.27;;
67776;SDS011;54576;52.020;5.536;2023-07-09T06:26:20;24.13;;;15.43;;
67776;SDS011;54576;52.020;5.536;2023-07-09T06:28:46;27.58;;;15.38;;
67776;SDS011;54576;52.020;5.536;2023-07-09T06:31:12;30.63;;;15.65;;
67776;SDS011;54576;52.020;5.536;2023-07-09T06:33:41;24.80;;;15.18;;
67776;SDS011;54576;52.020;5.536;2023-07-09T06:38:33;32.80;;;16.83;;
67776;SDS011;54576;52.020;5.536;2023-07-09T06:40:59;30.02;;;17.38;;
67776;SDS011;54576;52.020;5.536;2023-07-09T06:43:25;28.60;;;17.83;;
67776;SDS011;54576;52.020;5.536;2023-07-09T06:48:20;28.30;;;16.83;;
67776;SDS011;54576;52.020;5.536;2023-07-09T06:50:46;28.77;;;17.92;;
67776;SDS011;54576;52.020;5.536;2023-07-09T06:53:12;28.73;;;16.23;;
67776;SDS011;54576;52.020;5.536;2023-07-09T06:55:38;34.10;;;17.30;;
67776;SDS011;54576;52.020;5.536;2023-07-09T06:58:04;25.33;;;16.77;;
67776;SDS011;54576;52.020;5.536;2023-07-09T07:00:33;28.88;;;15.55;;
67776;SDS011;54576;52.020;5.536;2023-07-09T07:02:59;24.85;;;15.75;;
67776;SDS011;54576;52.020;5.536;2023-07-09T07:05:24;34.70;;;16.10;;
67776;SDS011;54576;52.020;5.536;2023-07-09T07:07:53;31.45;;;16.80;;
67776;SDS011;54576;52.020;5.536;2023-07-09T07:10:18;33.60;;;16.20;;
67776;SDS011;54576;52.020;5.536;2023-07-09T07:12:45;27.92;;;15.55;;
67776;SDS011;54576;52.020;5.536;2023-07-09T07:15:17;33.75;;;15.07;;
67776;SDS011;54576;52.020;5.536;2023-07-09T07:17:44;30.13;;;16.02;;
67776;SDS011;54576;52.020;5.536;2023-07-09T07:20:10;24.77;;;14.18;;
67776;SDS011;54576;52.020;5.536;2023-07-09T07:22:37;26.50;;;14.40;;
67776;SDS011;54576;52.020;5.536;2023-07-09T07:25:03;22.63;;;13.13;;
67776;SDS011;54576;52.020;5.536;2023-07-09T07:27:29;23.73;;;12.57;;
67776;SDS011;54576;52.020;5.536;2023-07-09T07:29:55;15.88;;;11.20;;
67776;SDS011;54576;52.020;5.536;2023-07-09T07:32:21;25.50;;;11.75;;
67776;SDS011;54576;52.020;5.536;2023-07-09T07:34:47;21.73;;;13.15;;
67776;SDS011;54576;52.020;5.536;2023-07-09T07:37:13;20.00;;;11.73;;
67776;SDS011;54576;52.020;5.536;2023-07-09T07:39:39;29.90;;;11.50;;
67776;SDS011;54576;52.020;5.536;2023-07-09T07:42:05;30.85;;;11.07;;
67776;SDS011;54576;52.020;5.536;2023-07-09T07:44:31;24.08;;;11.13;;
67776;SDS011;54576;52.020;5.536;2023-07-09T07:46:57;21.27;;;10.55;;
67776;SDS011;54576;52.020;5.536;2023-07-09T07:49:23;25.58;;;10.85;;
67776;SDS011;54576;52.020;5.536;2023-07-09T07:51:48;17.17;;;10.38;;
67776;SDS011;54576;52.020;5.536;2023-07-09T07:54:14;17.42;;;9.38;;
67776;SDS011;54576;52.020;5.536;2023-07-09T07:56:40;18.42;;;10.88;;
67776;SDS011;54576;52.020;5.536;2023-07-09T07:59:06;17.13;;;10.20;;
67776;SDS011;54576;52.020;5.536;2023-07-09T08:01:31;29.92;;;10.60;;
67776;SDS011;54576;52.020;5.536;2023-07-09T08:04:00;21.00;;;11.07;;
67776;SDS011;54576;52.020;5.536;2023-07-09T08:06:26;22.88;;;10.25;;
67776;SDS011;54576;52.020;5.536;2023-07-09T08:08:52;19.70;;;10.63;;
67776;SDS011;54576;52.020;5.536;2023-07-09T08:11:17;24.00;;;10.32;;
67776;SDS011;54576;52.020;5.536;2023-07-09T08:13:43;18.27;;;9.90;;
67776;SDS011;54576;52.020;5.536;2023-07-09T08:16:08;17.20;;;9.68;;
67776;SDS011;54576;52.020;5.536;2023-07-09T08:18:36;19.20;;;9.90;;
67776;SDS011;54576;52.020;5.536;2023-07-09T08:21:02;25.55;;;9.18;;
67776;SDS011;54576;52.020;5.536;2023-07-09T08:23:29;18.98;;;9.18;;
67776;SDS011;54576;52.020;5.536;2023-07-09T08:25:58;19.60;;;9.65;;
67776;SDS011;54576;52.020;5.536;2023-07-09T08:28:25;13.45;;;9.10;;
67776;SDS011;54576;52.020;5.536;2023-07-09T08:30:54;17.50;;;9.63;;
67776;SDS011;54576;52.020;5.536;2023-07-09T08:33:20;14.45;;;8.98;;
67776;SDS011;54576;52.020;5.536;2023-07-09T08:35:50;15.02;;;8.90;;
67776;SDS011;54576;52.020;5.536;2023-07-09T08:38:16;15.98;;;8.80;;
67776;SDS011;54576;52.020;5.536;2023-07-09T08:41:00;22.13;;;8.93;;
67776;SDS011;54576;52.020;5.536;2023-07-09T08:43:31;20.55;;;8.93;;
67776;SDS011;54576;52.020;5.536;2023-07-09T08:46:28;20.20;;;8.68;;
67776;SDS011;54576;52.020;5.536;2023-07-09T08:49:03;20.83;;;9.18;;
67776;SDS011;54576;52.020;5.536;2023-07-09T08:51:42;15.10;;;8.00;;
67776;SDS011;54576;52.020;5.536;2023-07-09T08:54:20;22.77;;;8.45;;
67776;SDS011;54576;52.020;5.536;2023-07-09T08:56:52;15.65;;;8.10;;
67776;SDS011;54576;52.020;5.536;2023-07-09T08:59:19;16.60;;;8.40;;
67776;SDS011;54576;52.020;5.536;2023-07-09T09:01:52;17.60;;;7.95;;
67776;SDS011;54576;52.020;5.536;2023-07-09T09:04:27;21.48;;;8.10;;
67776;SDS011;54576;52.020;5.536;2023-07-09T09:07:03;16.90;;;7.57;;
67776;SDS011;54576;52.020;5.536;2023-07-09T09:09:44;15.38;;;7.20;;
67776;SDS011;54576;52.020;5.536;2023-07-09T09:12:21;17.98;;;7.80;;
67776;SDS011;54576;52.020;5.536;2023-07-09T09:15:18;16.17;;;7.80;;
67776;SDS011;54576;52.020;5.536;2023-07-09T09:17:45;14.65;;;8.05;;
67776;SDS011;54576;52.020;5.536;2023-07-09T09:20:19;24.88;;;8.00;;
67776;SDS011;54576;52.020;5.536;2023-07-09T09:23:10;15.68;;;6.82;;
67776;SDS011;54576;52.020;5.536;2023-07-09T09:25:40;12.18;;;5.97;;
67776;SDS011;54576;52.020;5.536;2023-07-09T09:28:09;12.32;;;6.75;;
67776;SDS011;54576;52.020;5.536;2023-07-09T09:30:35;24.98;;;6.43;;
67776;SDS011;54576;52.020;5.536;2023-07-09T09:33:02;15.48;;;7.35;;
67776;SDS011;54576;52.020;5.536;2023-07-09T09:35:32;16.90;;;7.28;;
67776;SDS011;54576;52.020;5.536;2023-07-09T09:38:02;22.20;;;7.32;;
67776;SDS011;54576;52.020;5.536;2023-07-09T09:40:35;12.85;;;7.65;;
67776;SDS011;54576;52.020;5.536;2023-07-09T09:43:01;15.25;;;7.15;;
67776;SDS011;54576;52.020;5.536;2023-07-09T09:45:38;16.50;;;7.68;;
67776;SDS011;54576;52.020;5.536;2023-07-09T09:48:14;16.70;;;7.03;;
67776;SDS011;54576;52.020;5.536;2023-07-09T09:50:44;13.20;;;7.22;;
67776;SDS011;54576;52.020;5.536;2023-07-09T09:53:11;14.18;;;6.53;;
67776;SDS011;54576;52.020;5.536;2023-07-09T09:55:47;14.57;;;6.95;;
67776;SDS011;54576;52.020;5.536;2023-07-09T09:58:15;21.25;;;7.15;;
67776;SDS011;54576;52.020;5.536;2023-07-09T10:00:47;19.58;;;6.72;;
67776;SDS011;54576;52.020;5.536;2023-07-09T10:03:15;19.33;;;8.07;;
67776;SDS011;54576;52.020;5.536;2023-07-09T10:05:44;16.92;;;6.10;;
67776;SDS011;54576;52.020;5.536;2023-07-09T10:14:05;12.40;;;5.90;;
67776;SDS011;54576;52.020;5.536;2023-07-09T10:16:48;17.73;;;6.15;;
67776;SDS011;54576;52.020;5.536;2023-07-09T10:19:35;23.42;;;6.20;;
67776;SDS011;54576;52.020;5.536;2023-07-09T10:22:13;19.65;;;6.63;;
67776;SDS011;54576;52.020;5.536;2023-07-09T10:25:06;12.90;;;5.30;;
67776;SDS011;54576;52.020;5.536;2023-07-09T10:30:42;10.13;;;6.00;;
67776;SDS011;54576;52.020;5.536;2023-07-09T10:33:11;17.02;;;6.00;;
67776;SDS011;54576;52.020;5.536;2023-07-09T10:38:32;26.40;;;6.10;;
67776;SDS011;54576;52.020;5.536;2023-07-09T10:41:11;14.05;;;4.90;;
67776;SDS011;54576;52.020;5.536;2023-07-09T10:43:48;13.48;;;5.50;;
67776;SDS011;54576;52.020;5.536;2023-07-09T10:46:34;8.80;;;5.38;;
67776;SDS011;54576;52.020;5.536;2023-07-09T10:49:03;11.77;;;5.13;;
67776;SDS011;54576;52.020;5.536;2023-07-09T10:56:35;13.63;;;5.10;;
67776;SDS011;54576;52.020;5.536;2023-07-09T11:01:32;11.75;;;5.30;;
67776;SDS011;54576;52.020;5.536;2023-07-09T11:04:02;7.95;;;4.80;;
67776;SDS011;54576;52.020;5.536;2023-07-09T11:08:59;12.05;;;4.78;;
67776;SDS011;54576;52.020;5.536;2023-07-09T11:11:43;10.45;;;5.28;;
67776;SDS011;54576;52.020;5.536;2023-07-09T11:19:27;15.48;;;5.68;;
67776;SDS011;54576;52.020;5.536;2023-07-09T11:22:04;15.75;;;5.80;;
67776;SDS011;54576;52.020;5.536;2023-07-09T11:25:27;9.48;;;5.40;;
67776;SDS011;54576;52.020;5.536;2023-07-09T11:30:45;13.32;;;5.63;;
67776;SDS011;54576;52.020;5.536;2023-07-09T11:33:19;13.52;;;5.95;;
67776;SDS011;54576;52.020;5.536;2023-07-09T11:36:06;8.77;;;4.97;;
67776;SDS011;54576;52.020;5.536;2023-07-09T11:38:45;11.57;;;5.25;;
67776;SDS011;54576;52.020;5.536;2023-07-09T11:41:24;10.82;;;5.65;;
67776;SDS011;54576;52.020;5.536;2023-07-09T11:44:25;14.98;;;4.82;;
67776;SDS011;54576;52.020;5.536;2023-07-09T11:49:24;15.93;;;5.35;;
67776;SDS011;54576;52.020;5.536;2023-07-09T11:51:58;25.75;;;4.72;;
67776;SDS011;54576;52.020;5.536;2023-07-09T11:54:27;14.10;;;4.72;;
67776;SDS011;54576;52.020;5.536;2023-07-09T11:56:53;12.55;;;5.25;;
67776;SDS011;54576;52.020;5.536;2023-07-09T11:59:20;9.30;;;4.82;;
67776;SDS011;54576;52.020;5.536;2023-07-09T12:01:47;6.88;;;4.65;;
67776;SDS011;54576;52.020;5.536;2023-07-09T12:04:18;13.02;;;5.30;;
67776;SDS011;54576;52.020;5.536;2023-07-09T12:06:45;11.63;;;4.88;;
67776;SDS011;54576;52.020;5.536;2023-07-09T12:09:19;13.02;;;5.38;;
67776;SDS011;54576;52.020;5.536;2023-07-09T12:11:50;8.70;;;5.10;;
67776;SDS011;54576;52.020;5.536;2023-07-09T12:14:17;13.77;;;5.03;;
67776;SDS011;54576;52.020;5.536;2023-07-09T12:16:48;12.98;;;4.93;;
67776;SDS011;54576;52.020;5.536;2023-07-09T12:19:16;13.57;;;5.07;;
67776;SDS011;54576;52.020;5.536;2023-07-09T12:21:48;9.93;;;5.20;;
67776;SDS011;54576;52.020;5.536;2023-07-09T12:24:20;9.13;;;5.13;;
67776;SDS011;54576;52.020;5.536;2023-07-09T12:26:48;15.85;;;5.30;;
67776;SDS011;54576;52.020;5.536;2023-07-09T12:29:15;8.65;;;4.90;;
67776;SDS011;54576;52.020;5.536;2023-07-09T12:31:40;9.48;;;5.20;;
67776;SDS011;54576;52.020;5.536;2023-07-09T12:34:10;19.08;;;5.80;;
67776;SDS011;54576;52.020;5.536;2023-07-09T12:36:40;12.80;;;6.05;;
67776;SDS011;54576;52.020;5.536;2023-07-09T12:39:09;11.63;;;5.68;;
67776;SDS011;54576;52.020;5.536;2023-07-09T12:41:38;16.23;;;5.18;;
67776;SDS011;54576;52.020;5.536;2023-07-09T12:44:16;19.90;;;6.05;;
67776;SDS011;54576;52.020;5.536;2023-07-09T12:46:42;21.33;;;6.45;;
67776;SDS011;54576;52.020;5.536;2023-07-09T12:49:12;9.23;;;5.47;;
67776;SDS011;54576;52.020;5.536;2023-07-09T12:51:45;15.65;;;5.82;;
67776;SDS011;54576;52.020;5.536;2023-07-09T12:54:16;15.32;;;5.38;;
67776;SDS011;54576;52.020;5.536;2023-07-09T12:56:43;19.48;;;5.78;;
67776;SDS011;54576;52.020;5.536;2023-07-09T12:59:22;11.48;;;4.85;;
67776;SDS011;54576;52.020;5.536;2023-07-09T13:02:02;13.80;;;5.78;;
67776;SDS011;54576;52.020;5.536;2023-07-09T13:04:32;18.80;;;5.45;;
67776;SDS011;54576;52.020;5.536;2023-07-09T13:06:58;11.73;;;5.57;;
67776;SDS011;54576;52.020;5.536;2023-07-09T13:09:25;9.10;;;6.18;;
67776;SDS011;54576;52.020;5.536;2023-07-09T13:11:51;10.63;;;6.17;;
67776;SDS011;54576;52.020;5.536;2023-07-09T13:14:19;16.48;;;6.68;;
67776;SDS011;54576;52.020;5.536;2023-07-09T13:16:45;12.10;;;5.60;;
67776;SDS011;54576;52.020;5.536;2023-07-09T13:19:11;16.58;;;6.25;;
67776;SDS011;54576;52.020;5.536;2023-07-09T13:21:37;12.48;;;6.93;;
67776;SDS011;54576;52.020;5.536;2023-07-09T13:24:08;16.30;;;6.22;;
67776;SDS011;54576;52.020;5.536;2023-07-09T13:26:47;19.88;;;6.43;;
67776;SDS011;54576;52.020;5.536;2023-07-09T13:29:14;17.58;;;6.43;;
67776;SDS011;54576;52.020;5.536;2023-07-09T13:31:42;12.57;;;5.85;;
67776;SDS011;54576;52.020;5.536;2023-07-09T13:34:13;6.90;;;4.95;;
67776;SDS011;54576;52.020;5.536;2023-07-09T13:36:41;11.85;;;5.35;;
67776;SDS011;54576;52.020;5.536;2023-07-09T13:39:09;8.32;;;5.05;;
67776;SDS011;54576;52.020;5.536;2023-07-09T13:41:35;7.18;;;5.30;;
67776;SDS011;54576;52.020;5.536;2023-07-09T13:44:04;5.30;;;4.25;;
67776;SDS011;54576;52.020;5.536;2023-07-09T13:46:35;9.70;;;5.53;;
67776;SDS011;54576;52.020;5.536;2023-07-09T13:49:01;11.38;;;5.70;;
67776;SDS011;54576;52.020;5.536;2023-07-09T13:51:28;13.70;;;6.05;;
67776;SDS011;54576;52.020;5.536;2023-07-09T13:53:54;9.77;;;6.30;;
67776;SDS011;54576;52.020;5.536;2023-07-09T13:56:22;10.85;;;6.50;;
67776;SDS011;54576;52.020;5.536;2023-07-09T13:58:49;11.67;;;7.20;;
67776;SDS011;54576;52.020;5.536;2023-07-09T14:01:18;12.25;;;6.70;;
67776;SDS011;54576;52.020;5.536;2023-07-09T14:03:47;10.48;;;6.97;;
67776;SDS011;54576;52.020;5.536;2023-07-09T14:06:14;12.52;;;7.22;;
67776;SDS011;54576;52.020;5.536;2023-07-09T14:08:40;19.73;;;7.77;;
67776;SDS011;54576;52.020;5.536;2023-07-09T14:11:12;10.88;;;6.18;;
67776;SDS011;54576;52.020;5.536;2023-07-09T14:13:40;15.32;;;6.68;;
67776;SDS011;54576;52.020;5.536;2023-07-09T14:16:13;13.77;;;7.20;;
67776;SDS011;54576;52.020;5.536;2023-07-09T14:18:40;15.02;;;6.75;;
67776;SDS011;54576;52.020;5.536;2023-07-09T14:21:10;9.10;;;6.38;;
67776;SDS011;54576;52.020;5.536;2023-07-09T14:23:37;8.77;;;6.60;;
67776;SDS011;54576;52.020;5.536;2023-07-09T14:26:03;13.43;;;6.32;;
67776;SDS011;54576;52.020;5.536;2023-07-09T14:28:28;8.57;;;5.45;;
67776;SDS011;54576;52.020;5.536;2023-07-09T14:30:55;11.05;;;5.63;;
67776;SDS011;54576;52.020;5.536;2023-07-09T14:33:20;9.95;;;5.53;;
67776;SDS011;54576;52.020;5.536;2023-07-09T14:35:47;7.80;;;5.47;;
67776;SDS011;54576;52.020;5.536;2023-07-09T14:38:19;7.50;;;4.50;;
67776;SDS011;54576;52.020;5.536;2023-07-09T14:40:47;6.38;;;4.00;;
67776;SDS011;54576;52.020;5.536;2023-07-09T14:43:14;12.85;;;4.00;;
67776;SDS011;54576;52.020;5.536;2023-07-09T14:45:40;6.78;;;3.88;;
67776;SDS011;54576;52.020;5.536;2023-07-09T14:48:09;17.80;;;3.90;;
67776;SDS011;54576;52.020;5.536;2023-07-09T14:50:40;19.52;;;4.30;;
67776;SDS011;54576;52.020;5.536;2023-07-09T14:53:25;24.40;;;4.88;;
67776;SDS011;54576;52.020;5.536;2023-07-09T14:55:55;25.40;;;6.13;;
67776;SDS011;54576;52.020;5.536;2023-07-09T14:58:22;13.30;;;3.90;;
67776;SDS011;54576;52.020;5.536;2023-07-09T15:00:48;18.02;;;4.20;;
67776;SDS011;54576;52.020;5.536;2023-07-09T15:03:21;10.50;;;3.92;;
67776;SDS011;54576;52.020;5.536;2023-07-09T15:05:49;12.68;;;4.28;;
67776;SDS011;54576;52.020;5.536;2023-07-09T15:08:18;7.03;;;3.20;;
67776;SDS011;54576;52.020;5.536;2023-07-09T15:10:47;8.88;;;3.20;;
67776;SDS011;54576;52.020;5.536;2023-07-09T15:13:25;9.27;;;3.58;;
67776;SDS011;54576;52.020;5.536;2023-07-09T15:15:56;8.80;;;3.97;;
67776;SDS011;54576;52.020;5.536;2023-07-09T15:18:23;11.27;;;4.05;;
67776;SDS011;54576;52.020;5.536;2023-07-09T15:20:53;8.73;;;4.38;;
67776;SDS011;54576;52.020;5.536;2023-07-09T15:23:21;9.55;;;3.60;;
67776;SDS011;54576;52.020;5.536;2023-07-09T15:25:47;9.38;;;3.85;;
67776;SDS011;54576;52.020;5.536;2023-07-09T15:28:14;7.28;;;4.40;;
67776;SDS011;54576;52.020;5.536;2023-07-09T15:30:40;13.75;;;3.88;;
67776;SDS011;54576;52.020;5.536;2023-07-09T15:33:11;13.45;;;4.25;;